PWSweather.com
Personal Weather Stations
Station Observations
KILMORRI1
Goose Lake, Morris, IL 60450

Goose LakeMorris, IL 60450

Lat: 41.34, Lon: -88.3

Elevation: 523

Station Type:

www.gooselakeweather.com

High Low Average
Temperature 53.5°F11.9°C 33.8°F1.0°C 44.8°F7.1°C
Dew Point 48.4°F9.1°C 27.4°F-2.6°C 40.0°F4.4°C
Winds 20.7 mph 33.3 kmh 1.2 mph 1.9 kmh 7.0 mph WSW11.3 kmh WSW
Wind Gusts 31.1 mph50.1 kmh 2.3 mph3.7 kmh 12.0 mph19.3 kmh
Humidity 95% 73% 84%
Pressure 30.04 in1017.3 mb 29.77 in1008.1 mb -
Precipitation 0.50 in12.7 mm - -
Hour Temp Dew Point Humidity Winds Wind Gusts Pressure Precip Precip Rate Daily Precip Total
12:00 AM 47.8°F8.8°C 39.2°F4.0°C 72% 4.6 mph S7.4 kmh S 6.9 mph11.1 kmh 30.03 in1016.9 mb - 0.00 in0.0 mm 0.01 in0.3 mm
12:10 AM 47.8°F8.8°C 39.2°F4.0°C 72% 4.6 mph S7.4 kmh S 6.9 mph11.1 kmh 30.03 in1016.9 mb - 0.00 in0.0 mm 0.01 in0.3 mm
12:20 AM 47.7°F8.7°C 39.1°F3.9°C 72% 3.5 mph S5.6 kmh S 6.9 mph11.1 kmh 30.03 in1016.9 mb - 0.00 in0.0 mm 0.01 in0.3 mm
12:30 AM 47.7°F8.7°C 39.1°F3.9°C 72% 5.8 mph S9.3 kmh S 8.1 mph13.0 kmh 30.03 in1016.9 mb - 0.00 in0.0 mm 0.01 in0.3 mm
12:40 AM 47.7°F8.7°C 39.5°F4.2°C 73% 5.8 mph S9.3 kmh S 10.4 mph16.7 kmh 30.03 in1016.9 mb - 0.00 in0.0 mm 0.01 in0.3 mm
12:50 AM 47.6°F8.7°C 39.4°F4.1°C 73% 5.8 mph S9.3 kmh S 11.5 mph18.5 kmh 30.03 in1016.9 mb - 0.00 in0.0 mm 0.01 in0.3 mm
01:00 AM 47.5°F8.6°C 39.3°F4.1°C 73% 4.6 mph S7.4 kmh S 5.8 mph9.3 kmh 30.02 in1016.6 mb - 0.00 in0.0 mm 0.00 in0.0 mm
01:10 AM 47.5°F8.6°C 39.6°F4.2°C 74% 6.9 mph S11.1 kmh S 11.5 mph18.5 kmh 30.02 in1016.6 mb - 0.00 in0.0 mm 0.00 in0.0 mm
01:20 AM 47.4°F8.6°C 39.5°F4.2°C 74% 5.8 mph S9.3 kmh S 11.5 mph18.5 kmh 30.01 in1016.3 mb - 0.00 in0.0 mm 0.00 in0.0 mm
01:30 AM 47.5°F8.6°C 39.6°F4.2°C 74% 5.8 mph S9.3 kmh S 10.4 mph16.7 kmh 30.01 in1016.3 mb - 0.00 in0.0 mm 0.00 in0.0 mm
01:40 AM 47.5°F8.6°C 39.6°F4.2°C 74% 4.6 mph S7.4 kmh S 9.2 mph14.8 kmh 30.01 in1016.3 mb - 0.00 in0.0 mm 0.00 in0.0 mm
01:50 AM 47.6°F8.7°C 39.7°F4.3°C 74% 3.5 mph S5.6 kmh S 9.2 mph14.8 kmh 30.01 in1016.3 mb - 0.00 in0.0 mm 0.00 in0.0 mm
02:00 AM 47.6°F8.7°C 39.7°F4.3°C 74% 4.6 mph S7.4 kmh S 11.5 mph18.5 kmh 30.00 in1015.9 mb - 0.00 in0.0 mm 0.00 in0.0 mm
02:10 AM 47.6°F8.7°C 39.7°F4.3°C 74% 5.8 mph S9.3 kmh S 9.2 mph14.8 kmh 30.00 in1015.9 mb - 0.00 in0.0 mm 0.00 in0.0 mm
02:20 AM 47.8°F8.8°C 39.9°F4.4°C 74% 6.9 mph S11.1 kmh S 11.5 mph18.5 kmh 30.00 in1015.9 mb - 0.00 in0.0 mm 0.00 in0.0 mm
02:30 AM 47.8°F8.8°C 39.9°F4.4°C 74% 3.5 mph S5.6 kmh S 10.4 mph16.7 kmh 30.00 in1015.9 mb - 0.00 in0.0 mm 0.00 in0.0 mm
02:40 AM 47.8°F8.8°C 39.9°F4.4°C 74% 4.6 mph S7.4 kmh S 10.4 mph16.7 kmh 30.00 in1015.9 mb - 0.00 in0.0 mm 0.00 in0.0 mm
02:50 AM 47.8°F8.8°C 39.9°F4.4°C 74% 8.1 mph S13.0 kmh S 11.5 mph18.5 kmh 30.00 in1015.9 mb - 0.00 in0.0 mm 0.00 in0.0 mm
03:00 AM 47.8°F8.8°C 39.9°F4.4°C 74% 8.1 mph SSW13.0 kmh SSW 10.4 mph16.7 kmh 29.99 in1015.6 mb - 0.00 in0.0 mm 0.00 in0.0 mm
03:10 AM 47.4°F8.6°C 40.2°F4.6°C 76% 6.9 mph S11.1 kmh S 11.5 mph18.5 kmh 29.98 in1015.2 mb - 0.00 in0.0 mm 0.00 in0.0 mm
03:20 AM 47.4°F8.6°C 40.5°F4.7°C 77% 4.6 mph S7.4 kmh S 12.7 mph20.4 kmh 29.98 in1015.2 mb - 0.00 in0.0 mm 0.00 in0.0 mm
03:30 AM 46.6°F8.1°C 40.8°F4.9°C 80% 6.9 mph S11.1 kmh S 11.5 mph18.5 kmh 29.97 in1014.9 mb - 0.00 in0.0 mm 0.00 in0.0 mm
03:40 AM 46.7°F8.2°C 40.5°F4.7°C 79% 4.6 mph S7.4 kmh S 12.7 mph20.4 kmh 29.96 in1014.6 mb - 0.00 in0.0 mm 0.00 in0.0 mm
03:50 AM 46.7°F8.2°C 40.5°F4.7°C 79% 6.9 mph S11.1 kmh S 10.4 mph16.7 kmh 29.95 in1014.2 mb - 0.00 in0.0 mm 0.00 in0.0 mm
04:00 AM 46.9°F8.3°C 40.4°F4.7°C 78% 5.8 mph S9.3 kmh S 6.9 mph11.1 kmh 29.94 in1013.9 mb - 0.00 in0.0 mm 0.00 in0.0 mm
04:10 AM 46.9°F8.3°C 40.7°F4.8°C 79% 4.6 mph S7.4 kmh S 9.2 mph14.8 kmh 29.94 in1013.9 mb - 0.00 in0.0 mm 0.00 in0.0 mm
04:20 AM 46.1°F7.8°C 40.9°F4.9°C 82% 8.1 mph S13.0 kmh S 11.5 mph18.5 kmh 29.93 in1013.5 mb - 0.01 in0.3 mm 0.01 in0.3 mm
04:30 AM 45.4°F7.4°C 41.1°F5.1°C 85% 1.2 mph SSW1.9 kmh SSW 2.3 mph3.7 kmh 29.93 in1013.5 mb - 0.01 in0.3 mm 0.02 in0.5 mm
04:40 AM 45.0°F7.2°C 41.1°F5.1°C 86% 3.5 mph S5.6 kmh S 4.6 mph7.4 kmh 29.93 in1013.5 mb - 0.01 in0.3 mm 0.03 in0.8 mm
04:50 AM 44.6°F7.0°C 41.3°F5.2°C 88% 3.5 mph S5.6 kmh S 5.8 mph9.3 kmh 29.93 in1013.5 mb - 0.02 in0.5 mm 0.05 in1.3 mm
05:00 AM 44.3°F6.8°C 41.3°F5.2°C 89% 3.5 mph S5.6 kmh S 5.8 mph9.3 kmh 29.92 in1013.2 mb - 0.02 in0.5 mm 0.07 in1.8 mm
05:10 AM 44.2°F6.8°C 41.5°F5.3°C 90% 4.6 mph S7.4 kmh S 13.8 mph22.2 kmh 29.91 in1012.9 mb - 0.03 in0.8 mm 0.10 in2.5 mm
05:20 AM 44.0°F6.7°C 41.3°F5.2°C 90% 3.5 mph S5.6 kmh S 5.8 mph9.3 kmh 29.91 in1012.9 mb - 0.04 in1.0 mm 0.13 in3.3 mm
05:30 AM 43.9°F6.6°C 41.2°F5.1°C 90% 4.6 mph S7.4 kmh S 11.5 mph18.5 kmh 29.91 in1012.9 mb - 0.01 in0.3 mm 0.14 in3.6 mm
05:40 AM 44.0°F6.7°C 41.3°F5.2°C 90% 3.5 mph S5.6 kmh S 4.6 mph7.4 kmh 29.90 in1012.5 mb - 0.03 in0.8 mm 0.17 in4.3 mm
05:50 AM 44.2°F6.8°C 41.5°F5.3°C 90% 4.6 mph S7.4 kmh S 6.9 mph11.1 kmh 29.89 in1012.2 mb - 0.00 in0.0 mm 0.17 in4.3 mm
06:00 AM 44.5°F6.9°C 41.8°F5.4°C 90% 3.5 mph S5.6 kmh S 5.8 mph9.3 kmh 29.89 in1012.2 mb - 0.01 in0.3 mm 0.18 in4.6 mm
06:10 AM 44.5°F6.9°C 41.5°F5.3°C 89% 3.5 mph S5.6 kmh S 8.1 mph13.0 kmh 29.89 in1012.2 mb - 0.04 in1.0 mm 0.21 in5.3 mm
06:20 AM 44.3°F6.8°C 41.3°F5.2°C 89% 2.3 mph SSW3.7 kmh SSW 8.1 mph13.0 kmh 29.89 in1012.2 mb - 0.02 in0.5 mm 0.23 in5.8 mm
06:30 AM 44.1°F6.7°C 41.4°F5.2°C 90% 4.6 mph S7.4 kmh S 10.4 mph16.7 kmh 29.89 in1012.2 mb - 0.04 in1.0 mm 0.27 in6.9 mm
06:40 AM 43.9°F6.6°C 41.4°F5.2°C 91% 3.5 mph S5.6 kmh S 8.1 mph13.0 kmh 29.88 in1011.9 mb - 0.01 in0.3 mm 0.28 in7.1 mm
06:50 AM 43.9°F6.6°C 41.4°F5.2°C 91% 4.6 mph S7.4 kmh S 6.9 mph11.1 kmh 29.87 in1011.5 mb - 0.01 in0.3 mm 0.29 in7.4 mm
07:00 AM 43.9°F6.6°C 41.4°F5.2°C 91% 3.5 mph SSW5.6 kmh SSW 6.9 mph11.1 kmh 29.87 in1011.5 mb - 0.03 in0.8 mm 0.31 in7.9 mm
07:10 AM 43.9°F6.6°C 41.7°F5.4°C 92% 6.9 mph S11.1 kmh S 11.5 mph18.5 kmh 29.86 in1011.2 mb - 0.00 in0.0 mm 0.31 in7.9 mm
07:20 AM 44.0°F6.7°C 41.8°F5.4°C 92% 6.9 mph S11.1 kmh S 10.4 mph16.7 kmh 29.87 in1011.5 mb - 0.00 in0.0 mm 0.31 in7.9 mm
07:30 AM 44.0°F6.7°C 41.8°F5.4°C 92% 3.5 mph SSW5.6 kmh SSW 4.6 mph7.4 kmh 29.87 in1011.5 mb - 0.02 in0.5 mm 0.33 in8.4 mm
07:40 AM 44.0°F6.7°C 41.8°F5.4°C 92% 3.5 mph SSW5.6 kmh SSW 8.1 mph13.0 kmh 29.88 in1011.9 mb - 0.01 in0.3 mm 0.34 in8.6 mm
07:50 AM 44.0°F6.7°C 42.1°F5.6°C 93% 3.5 mph S5.6 kmh S 8.1 mph13.0 kmh 29.87 in1011.5 mb - 0.04 in1.0 mm 0.38 in9.7 mm
08:00 AM 44.0°F6.7°C 42.1°F5.6°C 93% 4.6 mph S7.4 kmh S 9.2 mph14.8 kmh 29.86 in1011.2 mb - 0.00 in0.0 mm 0.38 in9.7 mm
08:10 AM 44.0°F6.7°C 42.1°F5.6°C 93% 5.8 mph S9.3 kmh S 10.4 mph16.7 kmh 29.86 in1011.2 mb - 0.01 in0.3 mm 0.39 in9.9 mm
08:20 AM 44.0°F6.7°C 42.1°F5.6°C 93% 4.6 mph S7.4 kmh S 8.1 mph13.0 kmh 29.86 in1011.2 mb - 0.00 in0.0 mm 0.39 in9.9 mm
08:30 AM 44.1°F6.7°C 42.5°F5.8°C 94% 3.5 mph S5.6 kmh S 8.1 mph13.0 kmh 29.85 in1010.8 mb - 0.00 in0.0 mm 0.39 in9.9 mm
08:40 AM 44.1°F6.7°C 42.5°F5.8°C 94% 5.8 mph S9.3 kmh S 4.6 mph7.4 kmh 29.84 in1010.5 mb - 0.00 in0.0 mm 0.39 in9.9 mm
08:50 AM 44.2°F6.8°C 42.6°F5.9°C 94% 3.5 mph S5.6 kmh S 3.5 mph5.6 kmh 29.84 in1010.5 mb - 0.01 in0.3 mm 0.40 in10.2 mm
09:00 AM 44.3°F6.8°C 42.7°F5.9°C 94% 4.6 mph SSW7.4 kmh SSW 6.9 mph11.1 kmh 29.84 in1010.5 mb - 0.00 in0.0 mm 0.40 in10.2 mm
09:10 AM 44.3°F6.8°C 42.7°F5.9°C 94% 4.6 mph SSW7.4 kmh SSW 9.2 mph14.8 kmh 29.84 in1010.5 mb - 0.01 in0.3 mm 0.41 in10.4 mm
09:20 AM 44.5°F6.9°C 42.8°F6.0°C 94% 2.3 mph SSW3.7 kmh SSW 4.6 mph7.4 kmh 29.84 in1010.5 mb - 0.04 in1.0 mm 0.45 in11.4 mm
09:30 AM 44.6°F7.0°C 43.0°F6.1°C 94% 4.6 mph SSW7.4 kmh SSW 6.9 mph11.1 kmh 29.84 in1010.5 mb - 0.01 in0.3 mm 0.46 in11.7 mm
09:40 AM 44.9°F7.2°C 43.3°F6.3°C 94% 4.6 mph SSW7.4 kmh SSW 11.5 mph18.5 kmh 29.83 in1010.2 mb - 0.01 in0.3 mm 0.47 in11.9 mm
09:50 AM 45.0°F7.2°C 43.4°F6.3°C 94% 6.9 mph S11.1 kmh S 12.7 mph20.4 kmh 29.82 in1009.8 mb - 0.00 in0.0 mm 0.47 in11.9 mm
10:00 AM 45.2°F7.3°C 43.6°F6.4°C 94% 8.1 mph SW13.0 kmh SW 10.4 mph16.7 kmh 29.81 in1009.5 mb - 0.02 in0.5 mm 0.49 in12.4 mm
10:10 AM 45.4°F7.4°C 44.1°F6.7°C 95% 3.5 mph SW5.6 kmh SW 5.8 mph9.3 kmh 29.81 in1009.5 mb - 0.00 in0.0 mm 0.49 in12.4 mm
10:20 AM 45.7°F7.6°C 44.1°F6.7°C 94% 6.9 mph SW11.1 kmh SW 11.5 mph18.5 kmh 29.82 in1009.8 mb - 0.00 in0.0 mm 0.49 in12.4 mm
10:30 AM 45.9°F7.7°C 44.2°F6.8°C 94% 4.6 mph SW7.4 kmh SW 6.9 mph11.1 kmh 29.82 in1009.8 mb - 0.01 in0.3 mm 0.50 in12.7 mm
10:40 AM 46.1°F7.8°C 44.7°F7.1°C 95% 4.6 mph SW7.4 kmh SW 10.4 mph16.7 kmh 29.81 in1009.5 mb - 0.00 in0.0 mm 0.50 in12.7 mm
10:50 AM 46.2°F7.9°C 44.6°F7.0°C 94% 6.9 mph SW11.1 kmh SW 11.5 mph18.5 kmh 29.81 in1009.5 mb - 0.00 in0.0 mm 0.50 in12.7 mm
11:00 AM 46.3°F7.9°C 44.7°F7.1°C 94% 5.8 mph SW9.3 kmh SW 6.9 mph11.1 kmh 29.81 in1009.5 mb - 0.00 in0.0 mm 0.50 in12.7 mm
11:10 AM 46.5°F8.1°C 44.8°F7.1°C 94% 5.8 mph SW9.3 kmh SW 8.1 mph13.0 kmh 29.81 in1009.5 mb - 0.00 in0.0 mm 0.50 in12.7 mm
11:20 AM 46.6°F8.1°C 45.2°F7.3°C 95% 5.8 mph SW9.3 kmh SW 11.5 mph18.5 kmh 29.81 in1009.5 mb - 0.00 in0.0 mm 0.50 in12.7 mm
11:30 AM 46.8°F8.2°C 45.1°F7.3°C 94% 8.1 mph SW13.0 kmh SW 11.5 mph18.5 kmh 29.80 in1009.1 mb - 0.00 in0.0 mm 0.50 in12.7 mm
11:40 AM 46.9°F8.3°C 45.3°F7.4°C 94% 9.2 mph SW14.8 kmh SW 12.7 mph20.4 kmh 29.80 in1009.1 mb - 0.00 in0.0 mm 0.50 in12.7 mm
11:50 AM 47.1°F8.4°C 45.7°F7.6°C 95% 9.2 mph SW14.8 kmh SW 11.5 mph18.5 kmh 29.80 in1009.1 mb - 0.00 in0.0 mm 0.50 in12.7 mm
12:00 PM 47.2°F8.4°C 45.8°F7.7°C 95% 8.1 mph SW13.0 kmh SW 9.2 mph14.8 kmh 29.79 in1008.8 mb - 0.00 in0.0 mm 0.50 in12.7 mm
12:10 PM 47.4°F8.6°C 45.8°F7.7°C 94% 5.8 mph SW9.3 kmh SW 11.5 mph18.5 kmh 29.79 in1008.8 mb - 0.00 in0.0 mm 0.50 in12.7 mm
12:20 PM 47.8°F8.8°C 46.4°F8.0°C 95% 4.6 mph SW7.4 kmh SW 9.2 mph14.8 kmh 29.78 in1008.5 mb - 0.00 in0.0 mm 0.50 in12.7 mm
12:30 PM 47.9°F8.8°C 46.3°F7.9°C 94% 4.6 mph WSW7.4 kmh WSW 5.8 mph9.3 kmh 29.78 in1008.5 mb - 0.00 in0.0 mm 0.50 in12.7 mm
12:40 PM 48.2°F9.0°C 46.6°F8.1°C 94% 4.6 mph SW7.4 kmh SW 6.9 mph11.1 kmh 29.78 in1008.5 mb - 0.00 in0.0 mm 0.50 in12.7 mm
12:50 PM 48.6°F9.2°C 47.0°F8.3°C 94% 5.8 mph WSW9.3 kmh WSW 8.1 mph13.0 kmh 29.77 in1008.1 mb - 0.00 in0.0 mm 0.50 in12.7 mm
01:00 PM 48.8°F9.3°C 47.2°F8.4°C 94% 5.8 mph WSW9.3 kmh WSW 8.1 mph13.0 kmh 29.77 in1008.1 mb - 0.00 in0.0 mm 0.50 in12.7 mm
01:10 PM 49.0°F9.4°C 47.3°F8.5°C 94% 6.9 mph W11.1 kmh W 11.5 mph18.5 kmh 29.77 in1008.1 mb - 0.00 in0.0 mm 0.50 in12.7 mm
01:20 PM 49.1°F9.5°C 47.4°F8.6°C 94% 4.6 mph WSW7.4 kmh WSW 8.1 mph13.0 kmh 29.77 in1008.1 mb - 0.00 in0.0 mm 0.50 in12.7 mm
01:30 PM 49.4°F9.7°C 47.7°F8.7°C 94% 6.9 mph W11.1 kmh W 11.5 mph18.5 kmh 29.77 in1008.1 mb - 0.00 in0.0 mm 0.50 in12.7 mm
01:40 PM 49.4°F9.7°C 47.7°F8.7°C 94% 4.6 mph W7.4 kmh W 12.7 mph20.4 kmh 29.77 in1008.1 mb - 0.00 in0.0 mm 0.50 in12.7 mm
01:50 PM 49.6°F9.8°C 47.9°F8.8°C 94% 4.6 mph W7.4 kmh W 11.5 mph18.5 kmh 29.78 in1008.5 mb - 0.00 in0.0 mm 0.50 in12.7 mm
02:00 PM 49.9°F9.9°C 48.2°F9.0°C 94% 6.9 mph W11.1 kmh W 15.0 mph24.1 kmh 29.78 in1008.5 mb - 0.00 in0.0 mm 0.50 in12.7 mm
02:10 PM 50.3°F10.2°C 48.4°F9.1°C 93% 9.2 mph W14.8 kmh W 15.0 mph24.1 kmh 29.78 in1008.5 mb - 0.00 in0.0 mm 0.50 in12.7 mm
02:20 PM 50.5°F10.3°C 48.0°F8.9°C 91% 6.9 mph WNW11.1 kmh WNW 6.9 mph11.1 kmh 29.79 in1008.8 mb - 0.00 in0.0 mm 0.50 in12.7 mm
02:30 PM 50.7°F10.4°C 47.9°F8.8°C 90% 9.2 mph WNW14.8 kmh WNW 15.0 mph24.1 kmh 29.79 in1008.8 mb - 0.00 in0.0 mm 0.50 in12.7 mm
02:40 PM 51.0°F10.6°C 47.9°F8.8°C 89% 9.2 mph WNW14.8 kmh WNW 13.8 mph22.2 kmh 29.80 in1009.1 mb - 0.00 in0.0 mm 0.50 in12.7 mm
02:50 PM 50.9°F10.5°C 47.8°F8.8°C 89% 5.8 mph WNW9.3 kmh WNW 12.7 mph20.4 kmh 29.80 in1009.1 mb - 0.00 in0.0 mm 0.50 in12.7 mm
03:00 PM 51.0°F10.6°C 47.6°F8.7°C 88% 8.1 mph WNW13.0 kmh WNW 11.5 mph18.5 kmh 29.81 in1009.5 mb - 0.00 in0.0 mm 0.50 in12.7 mm
03:10 PM 51.4°F10.8°C 46.7°F8.2°C 84% 10.4 mph WNW16.7 kmh WNW 15.0 mph24.1 kmh 29.80 in1009.1 mb - 0.00 in0.0 mm 0.50 in12.7 mm
03:20 PM 52.7°F11.5°C 47.0°F8.3°C 81% 10.4 mph WNW16.7 kmh WNW 17.3 mph27.8 kmh 29.80 in1009.1 mb - 0.00 in0.0 mm 0.50 in12.7 mm
03:30 PM 53.0°F11.7°C 47.0°F8.3°C 80% 12.7 mph W20.4 kmh W 20.7 mph33.3 kmh 29.81 in1009.5 mb - 0.00 in0.0 mm 0.50 in12.7 mm
03:40 PM 53.1°F11.7°C 46.7°F8.2°C 79% 12.7 mph WNW20.4 kmh WNW 19.6 mph31.5 kmh 29.81 in1009.5 mb - 0.00 in0.0 mm 0.50 in12.7 mm
03:50 PM 53.5°F11.9°C 47.1°F8.4°C 79% 8.1 mph WNW13.0 kmh WNW 12.7 mph20.4 kmh 29.81 in1009.5 mb - 0.00 in0.0 mm 0.50 in12.7 mm
04:00 PM 52.1°F11.2°C 45.4°F7.4°C 78% 8.1 mph WNW13.0 kmh WNW 13.8 mph22.2 kmh 29.82 in1009.8 mb - 0.00 in0.0 mm 0.50 in12.7 mm
04:10 PM 52.6°F11.4°C 46.3°F7.9°C 79% 4.6 mph NW7.4 kmh NW 9.2 mph14.8 kmh 29.82 in1009.8 mb - 0.00 in0.0 mm 0.50 in12.7 mm
04:20 PM 53.2°F11.8°C 45.1°F7.3°C 74% 12.7 mph W20.4 kmh W 18.4 mph29.6 kmh 29.82 in1009.8 mb - 0.00 in0.0 mm 0.50 in12.7 mm
04:30 PM 52.5°F11.4°C 44.5°F6.9°C 74% 8.1 mph W13.0 kmh W 12.7 mph20.4 kmh 29.82 in1009.8 mb - 0.00 in0.0 mm 0.50 in12.7 mm
04:40 PM 52.3°F11.3°C 44.3°F6.8°C 74% 9.2 mph WNW14.8 kmh WNW 15.0 mph24.1 kmh 29.83 in1010.2 mb - 0.00 in0.0 mm 0.50 in12.7 mm
04:50 PM 52.0°F11.1°C 44.0°F6.7°C 74% 6.9 mph W11.1 kmh W 12.7 mph20.4 kmh 29.83 in1010.2 mb - 0.00 in0.0 mm 0.50 in12.7 mm
05:00 PM 51.7°F10.9°C 44.3°F6.8°C 76% 6.9 mph WSW11.1 kmh WSW 9.2 mph14.8 kmh 29.84 in1010.5 mb - 0.00 in0.0 mm 0.50 in12.7 mm
05:10 PM 51.3°F10.7°C 44.0°F6.7°C 76% 8.1 mph W13.0 kmh W 12.7 mph20.4 kmh 29.84 in1010.5 mb - 0.00 in0.0 mm 0.50 in12.7 mm
05:20 PM 50.8°F10.4°C 42.5°F5.8°C 73% 8.1 mph W13.0 kmh W 15.0 mph24.1 kmh 29.85 in1010.8 mb - 0.00 in0.0 mm 0.50 in12.7 mm
05:30 PM 50.2°F10.1°C 42.6°F5.9°C 75% 5.8 mph W9.3 kmh W 10.4 mph16.7 kmh 29.85 in1010.8 mb - 0.00 in0.0 mm 0.50 in12.7 mm
05:40 PM 49.7°F9.8°C 42.4°F5.8°C 76% 10.4 mph W16.7 kmh W 13.8 mph22.2 kmh 29.85 in1010.8 mb - 0.00 in0.0 mm 0.50 in12.7 mm
05:50 PM 49.2°F9.6°C 42.0°F5.6°C 76% 6.9 mph W11.1 kmh W 12.7 mph20.4 kmh 29.86 in1011.2 mb - 0.00 in0.0 mm 0.50 in12.7 mm
06:00 PM 48.8°F9.3°C 41.6°F5.3°C 76% 10.4 mph WSW16.7 kmh WSW 17.3 mph27.8 kmh 29.86 in1011.2 mb - 0.00 in0.0 mm 0.50 in12.7 mm
06:10 PM 48.6°F9.2°C 41.0°F5.0°C 75% 10.4 mph W16.7 kmh W 10.4 mph16.7 kmh 29.86 in1011.2 mb - 0.00 in0.0 mm 0.50 in12.7 mm
06:20 PM 48.2°F9.0°C 40.7°F4.8°C 75% 6.9 mph W11.1 kmh W 12.7 mph20.4 kmh 29.87 in1011.5 mb - 0.00 in0.0 mm 0.50 in12.7 mm
06:30 PM 48.0°F8.9°C 40.1°F4.5°C 74% 10.4 mph W16.7 kmh W 15.0 mph24.1 kmh 29.87 in1011.5 mb - 0.00 in0.0 mm 0.50 in12.7 mm
06:40 PM 47.8°F8.8°C 39.9°F4.4°C 74% 11.5 mph W18.5 kmh W 15.0 mph24.1 kmh 29.87 in1011.5 mb - 0.00 in0.0 mm 0.50 in12.7 mm
06:50 PM 47.5°F8.6°C 39.3°F4.1°C 73% 4.6 mph W7.4 kmh W 12.7 mph20.4 kmh 29.87 in1011.5 mb - 0.00 in0.0 mm 0.50 in12.7 mm
07:00 PM 47.1°F8.4°C 38.9°F3.8°C 73% 8.1 mph W13.0 kmh W 11.5 mph18.5 kmh 29.88 in1011.9 mb - 0.00 in0.0 mm 0.50 in12.7 mm
07:10 PM 46.5°F8.1°C 38.7°F3.7°C 74% 10.4 mph W16.7 kmh W 16.1 mph25.9 kmh 29.88 in1011.9 mb - 0.00 in0.0 mm 0.50 in12.7 mm
07:20 PM 46.1°F7.8°C 38.6°F3.7°C 75% 6.9 mph W11.1 kmh W 12.7 mph20.4 kmh 29.89 in1012.2 mb - 0.00 in0.0 mm 0.50 in12.7 mm
07:30 PM 45.9°F7.7°C 38.4°F3.6°C 75% 9.2 mph W14.8 kmh W 24.2 mph38.9 kmh 29.90 in1012.5 mb - 0.00 in0.0 mm 0.50 in12.7 mm
07:40 PM 45.5°F7.5°C 38.3°F3.5°C 76% 12.7 mph WNW20.4 kmh WNW 18.4 mph29.6 kmh 29.91 in1012.9 mb - 0.00 in0.0 mm 0.50 in12.7 mm
07:50 PM 43.8°F6.6°C 36.4°F2.4°C 75% 18.4 mph WNW29.6 kmh WNW 31.1 mph50.1 kmh 29.92 in1013.2 mb - 0.00 in0.0 mm 0.50 in12.7 mm
08:00 PM 41.1°F5.1°C 34.1°F1.2°C 76% 11.5 mph W18.5 kmh W 18.4 mph29.6 kmh 29.93 in1013.5 mb - 0.00 in0.0 mm 0.50 in12.7 mm
08:10 PM 39.1°F3.9°C 32.5°F0.3°C 77% 12.7 mph WNW20.4 kmh WNW 19.6 mph31.5 kmh 29.94 in1013.9 mb - 0.00 in0.0 mm 0.50 in12.7 mm
08:20 PM 37.8°F3.2°C 31.9°F-0.1°C 79% 11.5 mph W18.5 kmh W 19.6 mph31.5 kmh 29.95 in1014.2 mb - 0.00 in0.0 mm 0.50 in12.7 mm
08:30 PM 37.5°F3.1°C 31.6°F-0.2°C 79% 9.2 mph W14.8 kmh W 13.8 mph22.2 kmh 29.95 in1014.2 mb - 0.00 in0.0 mm 0.50 in12.7 mm
08:40 PM 37.4°F3.0°C 31.5°F-0.3°C 79% 13.8 mph NW22.2 kmh NW 19.6 mph31.5 kmh 29.96 in1014.6 mb - 0.00 in0.0 mm 0.50 in12.7 mm
08:50 PM 36.8°F2.7°C 30.6°F-0.8°C 78% 12.7 mph NW20.4 kmh NW 23.0 mph37.0 kmh 29.96 in1014.6 mb - 0.00 in0.0 mm 0.50 in12.7 mm
09:00 PM 36.1°F2.3°C 30.2°F-1.0°C 79% 11.5 mph NW18.5 kmh NW 18.4 mph29.6 kmh 29.97 in1014.9 mb - 0.00 in0.0 mm 0.50 in12.7 mm
09:10 PM 35.7°F2.1°C 30.1°F-1.1°C 80% 10.4 mph WNW16.7 kmh WNW 21.9 mph35.2 kmh 29.98 in1015.2 mb - 0.00 in0.0 mm 0.50 in12.7 mm
09:20 PM 35.3°F1.8°C 29.4°F-1.4°C 79% 15.0 mph NW24.1 kmh NW 20.7 mph33.3 kmh 29.97 in1014.9 mb - 0.00 in0.0 mm 0.50 in12.7 mm
09:30 PM 34.9°F1.6°C 29.0°F-1.7°C 79% 11.5 mph WNW18.5 kmh WNW 12.7 mph20.4 kmh 29.98 in1015.2 mb - 0.00 in0.0 mm 0.50 in12.7 mm
09:40 PM 34.7°F1.5°C 29.2°F-1.6°C 80% 8.1 mph WNW13.0 kmh WNW 18.4 mph29.6 kmh 29.98 in1015.2 mb - 0.00 in0.0 mm 0.50 in12.7 mm
09:50 PM 34.4°F1.3°C 28.9°F-1.7°C 80% 10.4 mph WNW16.7 kmh WNW 12.7 mph20.4 kmh 29.99 in1015.6 mb - 0.00 in0.0 mm 0.50 in12.7 mm
10:00 PM 34.2°F1.2°C 28.7°F-1.8°C 80% 8.1 mph WNW13.0 kmh WNW 17.3 mph27.8 kmh 29.99 in1015.6 mb - 0.00 in0.0 mm 0.50 in12.7 mm
10:10 PM 34.0°F1.1°C 28.8°F-1.8°C 81% 6.9 mph NW11.1 kmh NW 10.4 mph16.7 kmh 30.00 in1015.9 mb - 0.00 in0.0 mm 0.50 in12.7 mm
10:20 PM 33.8°F1.0°C 28.6°F-1.9°C 81% 8.1 mph WNW13.0 kmh WNW 18.4 mph29.6 kmh 29.99 in1015.6 mb - 0.00 in0.0 mm 0.50 in12.7 mm
10:30 PM 33.8°F1.0°C 28.3°F-2.1°C 80% 20.7 mph NW33.3 kmh NW 26.5 mph42.6 kmh 29.99 in1015.6 mb - 0.00 in0.0 mm 0.50 in12.7 mm
10:40 PM 33.8°F1.0°C 28.2°F-2.1°C 80% 12.7 mph NW20.4 kmh NW 20.7 mph33.3 kmh 30.00 in1015.9 mb - 0.00 in0.0 mm 0.50 in12.7 mm
10:50 PM 33.8°F1.0°C 28.3°F-2.1°C 80% 9.2 mph NW14.8 kmh NW 12.7 mph20.4 kmh 30.00 in1015.9 mb - 0.00 in0.0 mm 0.50 in12.7 mm
11:00 PM 33.8°F1.0°C 28.3°F-2.1°C 80% 12.7 mph NW20.4 kmh NW 15.0 mph24.1 kmh 30.00 in1015.9 mb - 0.00 in0.0 mm 0.50 in12.7 mm
11:10 PM 33.8°F1.0°C 28.0°F-2.2°C 79% 10.4 mph NW16.7 kmh NW 15.0 mph24.1 kmh 30.01 in1016.3 mb - 0.00 in0.0 mm 0.50 in12.7 mm
11:20 PM 33.8°F1.0°C 27.7°F-2.4°C 78% 11.5 mph NW18.5 kmh NW 18.4 mph29.6 kmh 30.01 in1016.3 mb - 0.00 in0.0 mm 0.50 in12.7 mm
11:30 PM 33.9°F1.1°C 27.4°F-2.6°C 77% 9.2 mph NW14.8 kmh NW 12.7 mph20.4 kmh 30.02 in1016.6 mb - 0.00 in0.0 mm 0.50 in12.7 mm
11:40 PM 34.0°F1.1°C 28.1°F-2.2°C 79% 8.1 mph NW13.0 kmh NW 12.7 mph20.4 kmh 30.02 in1016.6 mb - 0.00 in0.0 mm 0.50 in12.7 mm
11:50 PM 34.0°F1.1°C 28.2°F-2.1°C 79% 10.4 mph NW16.7 kmh NW 16.1 mph25.9 kmh 30.02 in1016.6 mb - 0.00 in0.0 mm 0.50 in12.7 mm